createdAt,value
2022-12-31T00:05:20.283Z,8.51
2022-12-31T00:21:03.090Z,8.53
2022-12-31T00:36:46.061Z,8.54
2022-12-31T00:52:28.422Z,8.51
2022-12-31T01:08:11.169Z,8.32
2022-12-31T01:23:54.397Z,8.29
2022-12-31T01:39:37.457Z,8.39
2022-12-31T01:55:19.984Z,8.54
2022-12-31T02:11:02.639Z,8.67
2022-12-31T02:26:45.079Z,8.84
2022-12-31T02:42:27.478Z,9.06
2022-12-31T02:58:10.082Z,9.18
2022-12-31T03:13:53.084Z,9.32
2022-12-31T03:29:35.683Z,9.64
2022-12-31T03:45:18.526Z,9.89
2022-12-31T04:01:00.889Z,10.1
2022-12-31T04:16:43.266Z,10.27
2022-12-31T04:32:25.964Z,10.52
2022-12-31T04:48:08.324Z,10.77
2022-12-31T05:03:51.389Z,10.87
2022-12-31T05:19:33.952Z,11.08
2022-12-31T05:35:16.814Z,11.34
2022-12-31T05:50:59.955Z,11.31
2022-12-31T06:06:42.447Z,11.21
2022-12-31T06:22:25.309Z,11.15
2022-12-31T06:38:07.829Z,11.35
2022-12-31T06:53:50.161Z,11.78
2022-12-31T07:09:32.846Z,12.15
2022-12-31T07:25:15.202Z,12.58
2022-12-31T07:40:57.389Z,12.83
2022-12-31T07:56:39.900Z,13.14
2022-12-31T08:12:22.493Z,13.49
2022-12-31T08:28:04.999Z,13.75
2022-12-31T08:43:47.586Z,13.94
2022-12-31T08:59:30.642Z,14.16
2022-12-31T09:15:13.284Z,14.74
2022-12-31T09:30:55.782Z,14.96
2022-12-31T09:46:38.750Z,15.42
2022-12-31T10:02:21.413Z,15.89
2022-12-31T10:18:04.230Z,16.59
2022-12-31T10:33:47.209Z,16.95
2022-12-31T10:49:30.318Z,16.81
2022-12-31T11:05:12.822Z,16.65
2022-12-31T11:20:55.043Z,16.56
2022-12-31T11:36:38.166Z,16.54
2022-12-31T11:37:25.373Z,16.69
2022-12-31T11:53:08.068Z,16.69
2022-12-31T12:08:50.379Z,16.95
2022-12-31T12:24:33.289Z,17.32
2022-12-31T12:40:15.853Z,17.35
2022-12-31T12:55:58.621Z,17.34
2022-12-31T13:11:41.088Z,17.37
2022-12-31T13:27:23.661Z,17.5
2022-12-31T13:43:06.652Z,17.45
2022-12-31T13:58:49.675Z,17.48
2022-12-31T14:14:31.903Z,17.4
2022-12-31T14:30:14.412Z,17.45
2022-12-31T14:45:56.672Z,17.36
2022-12-31T15:01:39.209Z,17.16
2022-12-31T15:17:21.995Z,16.83
2022-12-31T15:33:04.190Z,16.61
2022-12-31T15:48:46.397Z,16.45
2022-12-31T16:04:28.965Z,16.34
2022-12-31T16:20:11.233Z,16.23
2022-12-31T16:35:53.571Z,16.2
2022-12-31T16:51:35.902Z,16.27
2022-12-31T17:07:19.051Z,16.6
2022-12-31T17:23:01.289Z,16.71
2022-12-31T17:38:43.988Z,16.92
2022-12-31T17:54:26.352Z,16.95
2022-12-31T18:10:09.330Z,16.87
2022-12-31T18:25:51.698Z,16.81
2022-12-31T18:41:34.220Z,16.48
2022-12-31T18:57:17.773Z,15.98
2022-12-31T19:13:00.187Z,15.67
2022-12-31T19:28:43.119Z,15.49
2022-12-31T19:44:26.165Z,15.38
2022-12-31T20:00:08.371Z,15.27
2022-12-31T20:15:51.573Z,15.17
2022-12-31T20:31:33.929Z,15.19
2022-12-31T20:47:16.607Z,15.16
2022-12-31T21:02:59.644Z,15.14
2022-12-31T21:18:41.934Z,15.21
2022-12-31T21:34:24.662Z,15.22
2022-12-31T21:50:07.397Z,15.27
2022-12-31T22:05:50.452Z,15.17
2022-12-31T22:21:33.354Z,15.11
2022-12-31T22:37:16.200Z,15.13
2022-12-31T22:52:58.648Z,15.19
2022-12-31T23:08:40.863Z,15.18
2022-12-31T23:24:23.216Z,15.09
2022-12-31T23:40:05.819Z,15.03
2022-12-31T23:55:48.194Z,15
